sensor_id;sensor_type;location;lat;lon;timestamp;P1;durP1;ratioP1;P2;durP2;ratioP2
29120;SDS011;16191;49.548;8.658;2022-07-29T00:02:24;4.68;;;1.60;;
29120;SDS011;16191;49.548;8.658;2022-07-29T00:04:51;2.88;;;1.63;;
29120;SDS011;16191;49.548;8.658;2022-07-29T00:07:38;3.30;;;1.70;;
29120;SDS011;16191;49.548;8.658;2022-07-29T00:10:24;3.58;;;1.63;;
29120;SDS011;16191;49.548;8.658;2022-07-29T00:13:11;8.27;;;1.70;;
29120;SDS011;16191;49.548;8.658;2022-07-29T00:15:57;5.28;;;1.95;;
29120;SDS011;16191;49.548;8.658;2022-07-29T00:18:50;6.93;;;1.52;;
29120;SDS011;16191;49.548;8.658;2022-07-29T00:21:36;3.92;;;1.75;;
29120;SDS011;16191;49.548;8.658;2022-07-29T00:24:03;6.75;;;2.00;;
29120;SDS011;16191;49.548;8.658;2022-07-29T00:26:30;6.30;;;1.88;;
29120;SDS011;16191;49.548;8.658;2022-07-29T00:28:59;6.85;;;1.90;;
29120;SDS011;16191;49.548;8.658;2022-07-29T00:31:45;4.60;;;1.92;;
29120;SDS011;16191;49.548;8.658;2022-07-29T00:34:12;5.18;;;1.73;;
29120;SDS011;16191;49.548;8.658;2022-07-29T00:36:57;4.50;;;1.83;;
29120;SDS011;16191;49.548;8.658;2022-07-29T00:39:24;7.75;;;1.70;;
29120;SDS011;16191;49.548;8.658;2022-07-29T00:41:52;5.25;;;1.40;;
29120;SDS011;16191;49.548;8.658;2022-07-29T00:44:19;5.60;;;1.50;;
29120;SDS011;16191;49.548;8.658;2022-07-29T00:46:46;2.88;;;1.50;;
29120;SDS011;16191;49.548;8.658;2022-07-29T00:49:13;4.93;;;1.63;;
29120;SDS011;16191;49.548;8.658;2022-07-29T00:51:39;10.20;;;2.53;;
29120;SDS011;16191;49.548;8.658;2022-07-29T00:54:07;4.70;;;1.58;;
29120;SDS011;16191;49.548;8.658;2022-07-29T00:56:33;5.85;;;1.75;;
29120;SDS011;16191;49.548;8.658;2022-07-29T00:59:00;4.43;;;2.20;;
29120;SDS011;16191;49.548;8.658;2022-07-29T01:01:27;4.55;;;1.90;;
29120;SDS011;16191;49.548;8.658;2022-07-29T01:03:54;8.10;;;2.28;;
29120;SDS011;16191;49.548;8.658;2022-07-29T01:06:21;6.40;;;1.95;;
29120;SDS011;16191;49.548;8.658;2022-07-29T01:08:48;5.80;;;2.05;;
29120;SDS011;16191;49.548;8.658;2022-07-29T01:11:15;5.72;;;2.42;;
29120;SDS011;16191;49.548;8.658;2022-07-29T01:13:43;6.18;;;2.38;;
29120;SDS011;16191;49.548;8.658;2022-07-29T01:16:18;3.92;;;1.70;;
29120;SDS011;16191;49.548;8.658;2022-07-29T01:18:49;8.45;;;1.90;;
29120;SDS011;16191;49.548;8.658;2022-07-29T01:30:00;5.90;;;2.08;;
29120;SDS011;16191;49.548;8.658;2022-07-29T01:32:35;4.20;;;2.05;;
29120;SDS011;16191;49.548;8.658;2022-07-29T01:35:17;4.15;;;1.70;;
29120;SDS011;16191;49.548;8.658;2022-07-29T01:37:47;4.75;;;1.90;;
29120;SDS011;16191;49.548;8.658;2022-07-29T01:40:27;6.72;;;1.75;;
29120;SDS011;16191;49.548;8.658;2022-07-29T01:42:58;7.50;;;2.13;;
29120;SDS011;16191;49.548;8.658;2022-07-29T01:48:12;3.22;;;1.95;;
29120;SDS011;16191;49.548;8.658;2022-07-29T01:50:50;3.63;;;1.92;;
29120;SDS011;16191;49.548;8.658;2022-07-29T01:53:27;5.22;;;1.70;;
29120;SDS011;16191;49.548;8.658;2022-07-29T01:56:03;3.78;;;1.67;;
29120;SDS011;16191;49.548;8.658;2022-07-29T01:58:32;4.50;;;1.88;;
29120;SDS011;16191;49.548;8.658;2022-07-29T02:01:01;5.60;;;1.70;;
29120;SDS011;16191;49.548;8.658;2022-07-29T02:03:29;2.95;;;1.98;;
29120;SDS011;16191;49.548;8.658;2022-07-29T02:05:57;4.90;;;1.70;;
29120;SDS011;16191;49.548;8.658;2022-07-29T02:08:26;4.78;;;1.90;;
29120;SDS011;16191;49.548;8.658;2022-07-29T02:10:54;4.10;;;1.80;;
29120;SDS011;16191;49.548;8.658;2022-07-29T02:13:21;5.57;;;2.00;;
29120;SDS011;16191;49.548;8.658;2022-07-29T02:15:50;2.60;;;1.65;;
29120;SDS011;16191;49.548;8.658;2022-07-29T02:18:20;4.20;;;2.10;;
29120;SDS011;16191;49.548;8.658;2022-07-29T02:20:50;4.68;;;1.90;;
29120;SDS011;16191;49.548;8.658;2022-07-29T02:23:21;3.92;;;1.77;;
29120;SDS011;16191;49.548;8.658;2022-07-29T02:25:49;6.95;;;1.50;;
29120;SDS011;16191;49.548;8.658;2022-07-29T02:28:19;2.50;;;1.50;;
29120;SDS011;16191;49.548;8.658;2022-07-29T02:30:48;2.90;;;1.40;;
29120;SDS011;16191;49.548;8.658;2022-07-29T02:33:18;2.97;;;1.73;;
29120;SDS011;16191;49.548;8.658;2022-07-29T02:35:47;4.05;;;1.77;;
29120;SDS011;16191;49.548;8.658;2022-07-29T02:38:15;5.75;;;1.80;;
29120;SDS011;16191;49.548;8.658;2022-07-29T02:41:03;3.53;;;1.70;;
29120;SDS011;16191;49.548;8.658;2022-07-29T02:43:34;6.93;;;2.00;;
29120;SDS011;16191;49.548;8.658;2022-07-29T02:46:02;8.93;;;1.75;;
29120;SDS011;16191;49.548;8.658;2022-07-29T02:49:04;9.25;;;1.98;;
29120;SDS011;16191;49.548;8.658;2022-07-29T02:51:40;5.60;;;1.30;;
29120;SDS011;16191;49.548;8.658;2022-07-29T02:54:11;4.07;;;1.40;;
29120;SDS011;16191;49.548;8.658;2022-07-29T02:56:47;7.18;;;2.03;;
29120;SDS011;16191;49.548;8.658;2022-07-29T02:59:15;5.82;;;1.77;;
29120;SDS011;16191;49.548;8.658;2022-07-29T03:01:49;5.85;;;1.50;;
29120;SDS011;16191;49.548;8.658;2022-07-29T03:04:17;4.32;;;1.70;;
29120;SDS011;16191;49.548;8.658;2022-07-29T03:06:46;2.83;;;1.52;;
29120;SDS011;16191;49.548;8.658;2022-07-29T03:09:16;7.90;;;1.83;;
29120;SDS011;16191;49.548;8.658;2022-07-29T03:11:43;2.78;;;1.45;;
29120;SDS011;16191;49.548;8.658;2022-07-29T03:14:19;4.38;;;1.70;;
29120;SDS011;16191;49.548;8.658;2022-07-29T03:16:47;4.93;;;1.55;;
29120;SDS011;16191;49.548;8.658;2022-07-29T03:19:14;3.75;;;1.58;;
29120;SDS011;16191;49.548;8.658;2022-07-29T03:21:41;3.20;;;1.70;;
29120;SDS011;16191;49.548;8.658;2022-07-29T03:24:08;6.55;;;1.73;;
29120;SDS011;16191;49.548;8.658;2022-07-29T03:26:36;4.72;;;1.58;;
29120;SDS011;16191;49.548;8.658;2022-07-29T03:29:02;7.57;;;1.80;;
29120;SDS011;16191;49.548;8.658;2022-07-29T03:31:29;7.55;;;2.00;;
29120;SDS011;16191;49.548;8.658;2022-07-29T03:33:56;12.63;;;2.00;;
29120;SDS011;16191;49.548;8.658;2022-07-29T03:36:23;4.57;;;1.58;;
29120;SDS011;16191;49.548;8.658;2022-07-29T03:38:50;4.25;;;1.73;;
29120;SDS011;16191;49.548;8.658;2022-07-29T03:41:18;6.43;;;1.92;;
29120;SDS011;16191;49.548;8.658;2022-07-29T03:43:47;4.95;;;1.60;;
29120;SDS011;16191;49.548;8.658;2022-07-29T03:46:16;3.33;;;1.40;;
29120;SDS011;16191;49.548;8.658;2022-07-29T03:48:46;5.47;;;1.48;;
29120;SDS011;16191;49.548;8.658;2022-07-29T03:51:14;4.50;;;1.85;;
29120;SDS011;16191;49.548;8.658;2022-07-29T03:53:41;2.35;;;1.60;;
29120;SDS011;16191;49.548;8.658;2022-07-29T03:56:08;6.13;;;1.40;;
29120;SDS011;16191;49.548;8.658;2022-07-29T03:58:36;4.63;;;1.65;;
29120;SDS011;16191;49.548;8.658;2022-07-29T04:01:04;7.93;;;2.10;;
29120;SDS011;16191;49.548;8.658;2022-07-29T04:03:31;4.00;;;1.45;;
29120;SDS011;16191;49.548;8.658;2022-07-29T04:05:58;5.32;;;1.83;;
29120;SDS011;16191;49.548;8.658;2022-07-29T04:08:26;6.03;;;1.90;;
29120;SDS011;16191;49.548;8.658;2022-07-29T04:10:52;5.70;;;1.73;;
29120;SDS011;16191;49.548;8.658;2022-07-29T04:13:19;2.78;;;1.70;;
29120;SDS011;16191;49.548;8.658;2022-07-29T04:15:46;8.00;;;1.83;;
29120;SDS011;16191;49.548;8.658;2022-07-29T04:18:13;2.97;;;1.52;;
29120;SDS011;16191;49.548;8.658;2022-07-29T04:20:40;4.38;;;1.65;;
29120;SDS011;16191;49.548;8.658;2022-07-29T04:23:06;7.10;;;1.80;;
29120;SDS011;16191;49.548;8.658;2022-07-29T04:25:36;4.57;;;1.77;;
29120;SDS011;16191;49.548;8.658;2022-07-29T04:28:03;5.93;;;1.88;;
29120;SDS011;16191;49.548;8.658;2022-07-29T04:30:31;3.47;;;1.67;;
29120;SDS011;16191;49.548;8.658;2022-07-29T04:32:58;3.55;;;1.90;;
29120;SDS011;16191;49.548;8.658;2022-07-29T04:35:27;6.43;;;2.15;;
29120;SDS011;16191;49.548;8.658;2022-07-29T04:37:54;5.45;;;1.52;;
29120;SDS011;16191;49.548;8.658;2022-07-29T04:40:21;5.45;;;1.70;;
29120;SDS011;16191;49.548;8.658;2022-07-29T04:42:48;6.25;;;1.88;;
29120;SDS011;16191;49.548;8.658;2022-07-29T04:45:14;5.70;;;1.85;;
29120;SDS011;16191;49.548;8.658;2022-07-29T04:47:47;6.35;;;2.28;;
29120;SDS011;16191;49.548;8.658;2022-07-29T04:50:14;5.03;;;1.85;;
29120;SDS011;16191;49.548;8.658;2022-07-29T04:52:40;3.55;;;1.90;;
29120;SDS011;16191;49.548;8.658;2022-07-29T04:55:07;5.47;;;1.83;;
29120;SDS011;16191;49.548;8.658;2022-07-29T04:57:34;3.67;;;2.13;;
29120;SDS011;16191;49.548;8.658;2022-07-29T05:00:00;3.60;;;1.90;;
29120;SDS011;16191;49.548;8.658;2022-07-29T05:02:27;4.20;;;2.10;;
29120;SDS011;16191;49.548;8.658;2022-07-29T05:04:53;7.22;;;1.90;;
29120;SDS011;16191;49.548;8.658;2022-07-29T05:07:20;5.28;;;2.00;;
29120;SDS011;16191;49.548;8.658;2022-07-29T05:09:47;4.78;;;2.10;;
29120;SDS011;16191;49.548;8.658;2022-07-29T05:12:13;5.30;;;2.00;;
29120;SDS011;16191;49.548;8.658;2022-07-29T05:14:40;5.55;;;1.80;;
29120;SDS011;16191;49.548;8.658;2022-07-29T05:17:06;7.60;;;2.08;;
29120;SDS011;16191;49.548;8.658;2022-07-29T05:19:33;5.80;;;2.10;;
29120;SDS011;16191;49.548;8.658;2022-07-29T05:22:04;5.43;;;1.70;;
29120;SDS011;16191;49.548;8.658;2022-07-29T05:24:31;10.70;;;1.90;;
29120;SDS011;16191;49.548;8.658;2022-07-29T05:26:58;3.40;;;1.85;;
29120;SDS011;16191;49.548;8.658;2022-07-29T05:29:24;5.07;;;2.00;;
29120;SDS011;16191;49.548;8.658;2022-07-29T05:32:11;5.22;;;1.73;;
29120;SDS011;16191;49.548;8.658;2022-07-29T05:34:39;3.97;;;2.00;;
29120;SDS011;16191;49.548;8.658;2022-07-29T05:37:18;5.45;;;1.90;;
29120;SDS011;16191;49.548;8.658;2022-07-29T05:39:45;6.45;;;2.13;;
29120;SDS011;16191;49.548;8.658;2022-07-29T05:42:21;6.78;;;2.40;;
29120;SDS011;16191;49.548;8.658;2022-07-29T05:44:48;8.98;;;2.58;;
29120;SDS011;16191;49.548;8.658;2022-07-29T05:47:14;4.95;;;1.65;;
29120;SDS011;16191;49.548;8.658;2022-07-29T05:49:42;6.70;;;2.03;;
29120;SDS011;16191;49.548;8.658;2022-07-29T05:52:08;6.32;;;1.90;;
29120;SDS011;16191;49.548;8.658;2022-07-29T05:54:35;5.38;;;1.98;;
29120;SDS011;16191;49.548;8.658;2022-07-29T05:57:02;8.15;;;2.08;;
29120;SDS011;16191;49.548;8.658;2022-07-29T05:59:29;5.03;;;1.90;;
29120;SDS011;16191;49.548;8.658;2022-07-29T06:01:56;5.40;;;2.20;;
29120;SDS011;16191;49.548;8.658;2022-07-29T06:04:23;6.38;;;1.80;;
29120;SDS011;16191;49.548;8.658;2022-07-29T06:06:50;13.15;;;1.80;;
29120;SDS011;16191;49.548;8.658;2022-07-29T06:09:17;7.22;;;1.77;;
29120;SDS011;16191;49.548;8.658;2022-07-29T06:11:43;10.13;;;2.33;;
29120;SDS011;16191;49.548;8.658;2022-07-29T06:14:10;4.40;;;1.70;;
29120;SDS011;16191;49.548;8.658;2022-07-29T06:16:37;6.82;;;1.60;;
29120;SDS011;16191;49.548;8.658;2022-07-29T06:19:04;10.77;;;1.95;;
29120;SDS011;16191;49.548;8.658;2022-07-29T06:21:30;6.78;;;1.98;;
29120;SDS011;16191;49.548;8.658;2022-07-29T06:23:57;11.75;;;2.00;;
29120;SDS011;16191;49.548;8.658;2022-07-29T06:26:23;6.57;;;2.20;;
29120;SDS011;16191;49.548;8.658;2022-07-29T06:28:56;5.72;;;1.80;;
29120;SDS011;16191;49.548;8.658;2022-07-29T06:31:22;7.95;;;2.40;;
29120;SDS011;16191;49.548;8.658;2022-07-29T06:33:49;3.70;;;2.05;;
29120;SDS011;16191;49.548;8.658;2022-07-29T06:36:15;4.93;;;2.05;;
29120;SDS011;16191;49.548;8.658;2022-07-29T06:38:42;7.38;;;1.90;;
29120;SDS011;16191;49.548;8.658;2022-07-29T06:41:16;4.63;;;2.05;;
29120;SDS011;16191;49.548;8.658;2022-07-29T06:43:44;3.53;;;2.20;;
29120;SDS011;16191;49.548;8.658;2022-07-29T06:46:19;4.75;;;1.90;;
29120;SDS011;16191;49.548;8.658;2022-07-29T06:48:48;6.00;;;2.10;;
29120;SDS011;16191;49.548;8.658;2022-07-29T06:51:15;8.00;;;2.00;;
29120;SDS011;16191;49.548;8.658;2022-07-29T06:53:48;6.78;;;2.45;;
29120;SDS011;16191;49.548;8.658;2022-07-29T06:56:27;6.78;;;2.15;;
29120;SDS011;16191;49.548;8.658;2022-07-29T06:58:53;6.70;;;2.60;;
29120;SDS011;16191;49.548;8.658;2022-07-29T07:01:20;10.50;;;2.30;;
29120;SDS011;16191;49.548;8.658;2022-07-29T07:03:47;4.82;;;2.25;;
29120;SDS011;16191;49.548;8.658;2022-07-29T07:06:14;10.05;;;2.38;;
29120;SDS011;16191;49.548;8.658;2022-07-29T07:08:40;13.65;;;2.45;;
29120;SDS011;16191;49.548;8.658;2022-07-29T07:11:07;4.63;;;2.38;;
29120;SDS011;16191;49.548;8.658;2022-07-29T07:13:34;6.85;;;2.67;;
29120;SDS011;16191;49.548;8.658;2022-07-29T07:16:02;9.10;;;3.10;;
29120;SDS011;16191;49.548;8.658;2022-07-29T07:18:29;7.72;;;2.72;;
29120;SDS011;16191;49.548;8.658;2022-07-29T07:20:56;10.38;;;2.72;;
29120;SDS011;16191;49.548;8.658;2022-07-29T07:23:23;6.75;;;2.60;;
29120;SDS011;16191;49.548;8.658;2022-07-29T07:25:50;5.05;;;2.67;;
29120;SDS011;16191;49.548;8.658;2022-07-29T07:28:17;9.35;;;2.53;;
29120;SDS011;16191;49.548;8.658;2022-07-29T07:30:49;9.18;;;1.92;;
29120;SDS011;16191;49.548;8.658;2022-07-29T07:33:16;5.68;;;2.15;;
29120;SDS011;16191;49.548;8.658;2022-07-29T07:35:43;5.50;;;2.38;;
29120;SDS011;16191;49.548;8.658;2022-07-29T07:38:10;5.47;;;2.00;;
29120;SDS011;16191;49.548;8.658;2022-07-29T07:40:36;5.13;;;2.13;;
29120;SDS011;16191;49.548;8.658;2022-07-29T07:43:03;5.72;;;2.38;;
29120;SDS011;16191;49.548;8.658;2022-07-29T07:45:30;5.45;;;2.10;;
29120;SDS011;16191;49.548;8.658;2022-07-29T07:47:58;8.50;;;2.28;;
29120;SDS011;16191;49.548;8.658;2022-07-29T07:50:25;6.78;;;2.50;;
29120;SDS011;16191;49.548;8.658;2022-07-29T07:52:53;3.92;;;2.47;;
29120;SDS011;16191;49.548;8.658;2022-07-29T07:55:24;10.35;;;2.60;;
29120;SDS011;16191;49.548;8.658;2022-07-29T07:57:52;6.13;;;2.67;;
29120;SDS011;16191;49.548;8.658;2022-07-29T08:00:20;4.90;;;2.30;;
29120;SDS011;16191;49.548;8.658;2022-07-29T08:02:48;5.20;;;2.22;;
29120;SDS011;16191;49.548;8.658;2022-07-29T08:05:16;6.20;;;2.65;;
29120;SDS011;16191;49.548;8.658;2022-07-29T08:07:46;10.53;;;2.70;;
29120;SDS011;16191;49.548;8.658;2022-07-29T08:10:16;6.82;;;2.38;;
29120;SDS011;16191;49.548;8.658;2022-07-29T08:13:08;4.90;;;2.67;;
29120;SDS011;16191;49.548;8.658;2022-07-29T08:15:38;6.13;;;2.72;;
29120;SDS011;16191;49.548;8.658;2022-07-29T08:18:05;8.98;;;2.15;;
29120;SDS011;16191;49.548;8.658;2022-07-29T08:20:34;11.45;;;2.78;;
29120;SDS011;16191;49.548;8.658;2022-07-29T08:23:02;10.57;;;2.53;;
29120;SDS011;16191;49.548;8.658;2022-07-29T08:25:30;4.38;;;2.47;;
29120;SDS011;16191;49.548;8.658;2022-07-29T08:27:57;9.60;;;2.75;;
29120;SDS011;16191;49.548;8.658;2022-07-29T08:30:23;7.35;;;2.70;;
29120;SDS011;16191;49.548;8.658;2022-07-29T08:32:50;6.63;;;2.55;;
29120;SDS011;16191;49.548;8.658;2022-07-29T08:37:48;6.22;;;2.58;;
29120;SDS011;16191;49.548;8.658;2022-07-29T08:40:15;6.05;;;2.95;;
29120;SDS011;16191;49.548;8.658;2022-07-29T08:42:42;11.35;;;2.72;;
29120;SDS011;16191;49.548;8.658;2022-07-29T08:45:09;4.85;;;2.72;;
29120;SDS011;16191;49.548;8.658;2022-07-29T08:47:36;7.32;;;2.63;;
29120;SDS011;16191;49.548;8.658;2022-07-29T08:50:08;8.07;;;2.60;;
29120;SDS011;16191;49.548;8.658;2022-07-29T08:52:36;8.82;;;2.40;;
29120;SDS011;16191;49.548;8.658;2022-07-29T08:55:07;9.10;;;2.40;;
29120;SDS011;16191;49.548;8.658;2022-07-29T08:57:35;8.23;;;2.80;;
29120;SDS011;16191;49.548;8.658;2022-07-29T09:00:05;7.32;;;2.20;;
29120;SDS011;16191;49.548;8.658;2022-07-29T09:02:41;5.50;;;1.85;;
29120;SDS011;16191;49.548;8.658;2022-07-29T09:05:13;7.40;;;2.50;;
29120;SDS011;16191;49.548;8.658;2022-07-29T09:07:40;4.57;;;2.30;;
29120;SDS011;16191;49.548;8.658;2022-07-29T09:10:09;8.20;;;2.85;;
29120;SDS011;16191;49.548;8.658;2022-07-29T09:12:36;6.28;;;2.45;;
29120;SDS011;16191;49.548;8.658;2022-07-29T09:15:03;5.43;;;2.22;;
29120;SDS011;16191;49.548;8.658;2022-07-29T09:17:40;12.05;;;2.50;;
29120;SDS011;16191;49.548;8.658;2022-07-29T09:20:09;5.30;;;2.30;;
29120;SDS011;16191;49.548;8.658;2022-07-29T09:22:40;8.95;;;3.10;;
29120;SDS011;16191;49.548;8.658;2022-07-29T09:25:07;7.30;;;2.40;;
29120;SDS011;16191;49.548;8.658;2022-07-29T09:27:34;15.93;;;2.50;;
29120;SDS011;16191;49.548;8.658;2022-07-29T09:30:03;11.93;;;2.80;;
29120;SDS011;16191;49.548;8.658;2022-07-29T09:32:55;8.75;;;2.42;;
29120;SDS011;16191;49.548;8.658;2022-07-29T09:35:24;8.00;;;2.53;;
29120;SDS011;16191;49.548;8.658;2022-07-29T09:37:52;8.23;;;3.10;;
29120;SDS011;16191;49.548;8.658;2022-07-29T09:40:20;5.97;;;2.70;;
29120;SDS011;16191;49.548;8.658;2022-07-29T09:42:51;5.70;;;2.90;;
29120;SDS011;16191;49.548;8.658;2022-07-29T09:45:26;7.85;;;2.55;;
29120;SDS011;16191;49.548;8.658;2022-07-29T09:47:57;9.75;;;2.92;;
29120;SDS011;16191;49.548;8.658;2022-07-29T09:50:38;6.78;;;2.88;;
29120;SDS011;16191;49.548;8.658;2022-07-29T09:53:06;12.00;;;2.75;;
29120;SDS011;16191;49.548;8.658;2022-07-29T09:55:53;7.45;;;3.20;;
29120;SDS011;16191;49.548;8.658;2022-07-29T09:58:20;7.10;;;3.15;;
29120;SDS011;16191;49.548;8.658;2022-07-29T10:00:49;4.05;;;2.40;;
29120;SDS011;16191;49.548;8.658;2022-07-29T10:03:17;8.20;;;3.78;;
29120;SDS011;16191;49.548;8.658;2022-07-29T10:05:44;9.77;;;2.63;;
29120;SDS011;16191;49.548;8.658;2022-07-29T10:08:12;6.65;;;2.78;;
29120;SDS011;16191;49.548;8.658;2022-07-29T10:10:40;5.20;;;2.60;;
29120;SDS011;16191;49.548;8.658;2022-07-29T10:13:09;5.22;;;2.70;;
29120;SDS011;16191;49.548;8.658;2022-07-29T10:15:42;6.45;;;3.00;;
29120;SDS011;16191;49.548;8.658;2022-07-29T10:18:12;6.28;;;2.95;;
29120;SDS011;16191;49.548;8.658;2022-07-29T10:20:39;9.18;;;2.80;;
29120;SDS011;16191;49.548;8.658;2022-07-29T10:23:06;5.65;;;2.40;;
29120;SDS011;16191;49.548;8.658;2022-07-29T10:25:32;10.25;;;3.10;;
29120;SDS011;16191;49.548;8.658;2022-07-29T10:27:59;7.03;;;2.90;;
29120;SDS011;16191;49.548;8.658;2022-07-29T10:30:26;5.60;;;2.55;;
29120;SDS011;16191;49.548;8.658;2022-07-29T10:33:15;10.05;;;2.90;;
29120;SDS011;16191;49.548;8.658;2022-07-29T10:44:16;7.75;;;2.72;;
29120;SDS011;16191;49.548;8.658;2022-07-29T10:46:49;7.38;;;2.65;;
29120;SDS011;16191;49.548;8.658;2022-07-29T10:49:23;7.32;;;2.78;;
29120;SDS011;16191;49.548;8.658;2022-07-29T10:51:59;8.50;;;2.80;;
29120;SDS011;16191;49.548;8.658;2022-07-29T10:54:38;5.87;;;2.90;;
29120;SDS011;16191;49.548;8.658;2022-07-29T10:59:41;7.97;;;2.58;;
29120;SDS011;16191;49.548;8.658;2022-07-29T11:05:17;7.25;;;2.65;;
29120;SDS011;16191;49.548;8.658;2022-07-29T11:10:46;7.35;;;2.42;;
29120;SDS011;16191;49.548;8.658;2022-07-29T11:13:44;9.65;;;2.92;;
29120;SDS011;16191;49.548;8.658;2022-07-29T11:16:09;8.20;;;2.40;;
29120;SDS011;16191;49.548;8.658;2022-07-29T11:18:40;8.88;;;2.38;;
29120;SDS011;16191;49.548;8.658;2022-07-29T11:21:39;11.77;;;2.58;;
29120;SDS011;16191;49.548;8.658;2022-07-29T11:24:28;10.85;;;2.67;;
29120;SDS011;16191;49.548;8.658;2022-07-29T11:27:16;10.82;;;3.03;;
29120;SDS011;16191;49.548;8.658;2022-07-29T11:29:56;6.07;;;2.47;;
29120;SDS011;16191;49.548;8.658;2022-07-29T11:32:35;6.95;;;2.70;;
29120;SDS011;16191;49.548;8.658;2022-07-29T11:38:23;14.40;;;2.85;;
29120;SDS011;16191;49.548;8.658;2022-07-29T11:43:56;8.13;;;2.90;;
29120;SDS011;16191;49.548;8.658;2022-07-29T11:49:20;8.55;;;2.72;;
29120;SDS011;16191;49.548;8.658;2022-07-29T11:51:58;11.52;;;2.67;;
29120;SDS011;16191;49.548;8.658;2022-07-29T11:54:30;5.45;;;2.65;;
29120;SDS011;16191;49.548;8.658;2022-07-29T11:57:17;8.68;;;3.22;;
29120;SDS011;16191;49.548;8.658;2022-07-29T11:59:47;10.20;;;2.83;;
29120;SDS011;16191;49.548;8.658;2022-07-29T12:02:14;10.98;;;2.85;;
29120;SDS011;16191;49.548;8.658;2022-07-29T12:05:01;9.20;;;2.42;;
29120;SDS011;16191;49.548;8.658;2022-07-29T12:07:48;9.05;;;3.17;;
29120;SDS011;16191;49.548;8.658;2022-07-29T12:10:15;7.45;;;2.80;;
29120;SDS011;16191;49.548;8.658;2022-07-29T12:12:54;5.68;;;2.72;;
29120;SDS011;16191;49.548;8.658;2022-07-29T12:15:21;5.07;;;2.40;;
29120;SDS011;16191;49.548;8.658;2022-07-29T12:18:14;8.38;;;3.20;;
29120;SDS011;16191;49.548;8.658;2022-07-29T12:20:44;8.35;;;2.42;;
29120;SDS011;16191;49.548;8.658;2022-07-29T12:23:12;21.90;;;3.08;;
29120;SDS011;16191;49.548;8.658;2022-07-29T12:25:42;7.45;;;2.78;;
29120;SDS011;16191;49.548;8.658;2022-07-29T12:28:15;11.32;;;2.70;;
29120;SDS011;16191;49.548;8.658;2022-07-29T12:30:53;4.78;;;2.20;;
29120;SDS011;16191;49.548;8.658;2022-07-29T12:33:27;8.52;;;2.70;;
29120;SDS011;16191;49.548;8.658;2022-07-29T12:35:56;6.68;;;2.88;;
29120;SDS011;16191;49.548;8.658;2022-07-29T12:38:37;10.05;;;3.25;;
29120;SDS011;16191;49.548;8.658;2022-07-29T12:43:33;8.15;;;2.90;;
29120;SDS011;16191;49.548;8.658;2022-07-29T12:46:10;6.78;;;2.97;;
29120;SDS011;16191;49.548;8.658;2022-07-29T12:48:39;7.32;;;2.58;;
29120;SDS011;16191;49.548;8.658;2022-07-29T12:51:07;6.97;;;2.70;;
29120;SDS011;16191;49.548;8.658;2022-07-29T12:53:35;6.85;;;2.72;;
29120;SDS011;16191;49.548;8.658;2022-07-29T12:56:03;10.05;;;2.50;;
29120;SDS011;16191;49.548;8.658;2022-07-29T12:58:46;11.98;;;2.63;;
29120;SDS011;16191;49.548;8.658;2022-07-29T13:01:17;7.90;;;2.50;;
29120;SDS011;16191;49.548;8.658;2022-07-29T13:06:32;14.07;;;2.47;;
29120;SDS011;16191;49.548;8.658;2022-07-29T13:09:02;14.60;;;2.40;;
29120;SDS011;16191;49.548;8.658;2022-07-29T13:12:10;8.38;;;2.28;;
29120;SDS011;16191;49.548;8.658;2022-07-29T13:17:01;5.97;;;1.80;;
29120;SDS011;16191;49.548;8.658;2022-07-29T13:19:35;8.75;;;2.00;;
29120;SDS011;16191;49.548;8.658;2022-07-29T13:22:02;3.00;;;1.55;;
29120;SDS011;16191;49.548;8.658;2022-07-29T13:24:29;3.63;;;1.83;;
29120;SDS011;16191;49.548;8.658;2022-07-29T13:26:56;7.82;;;2.13;;
29120;SDS011;16191;49.548;8.658;2022-07-29T13:29:22;9.02;;;1.92;;
29120;SDS011;16191;49.548;8.658;2022-07-29T13:31:53;5.50;;;1.90;;
29120;SDS011;16191;49.548;8.658;2022-07-29T13:34:21;7.00;;;1.80;;
29120;SDS011;16191;49.548;8.658;2022-07-29T13:36:48;7.80;;;1.70;;
29120;SDS011;16191;49.548;8.658;2022-07-29T13:39:14;9.43;;;1.90;;
29120;SDS011;16191;49.548;8.658;2022-07-29T13:41:41;11.75;;;2.08;;
29120;SDS011;16191;49.548;8.658;2022-07-29T13:44:08;12.05;;;2.13;;
29120;SDS011;16191;49.548;8.658;2022-07-29T13:46:35;9.88;;;1.85;;
29120;SDS011;16191;49.548;8.658;2022-07-29T13:49:05;9.48;;;2.65;;
29120;SDS011;16191;49.548;8.658;2022-07-29T13:51:32;10.77;;;2.22;;
29120;SDS011;16191;49.548;8.658;2022-07-29T13:53:58;9.00;;;2.08;;
29120;SDS011;16191;49.548;8.658;2022-07-29T13:56:25;5.80;;;1.95;;
29120;SDS011;16191;49.548;8.658;2022-07-29T13:58:52;12.55;;;2.30;;
29120;SDS011;16191;49.548;8.658;2022-07-29T14:01:18;7.80;;;1.63;;
29120;SDS011;16191;49.548;8.658;2022-07-29T14:03:45;7.72;;;2.17;;
29120;SDS011;16191;49.548;8.658;2022-07-29T14:06:11;5.05;;;2.00;;
29120;SDS011;16191;49.548;8.658;2022-07-29T14:08:39;8.82;;;2.00;;
29120;SDS011;16191;49.548;8.658;2022-07-29T14:11:06;6.55;;;1.90;;
29120;SDS011;16191;49.548;8.658;2022-07-29T14:13:32;6.18;;;1.70;;
29120;SDS011;16191;49.548;8.658;2022-07-29T14:15:59;6.38;;;2.03;;
29120;SDS011;16191;49.548;8.658;2022-07-29T14:18:25;8.82;;;2.10;;
29120;SDS011;16191;49.548;8.658;2022-07-29T14:20:52;4.88;;;2.00;;
29120;SDS011;16191;49.548;8.658;2022-07-29T14:23:19;5.10;;;1.80;;
29120;SDS011;16191;49.548;8.658;2022-07-29T14:25:45;5.47;;;2.20;;
29120;SDS011;16191;49.548;8.658;2022-07-29T14:28:14;7.77;;;2.07;;
29120;SDS011;16191;49.548;8.658;2022-07-29T14:30:41;6.03;;;1.60;;
29120;SDS011;16191;49.548;8.658;2022-07-29T14:33:08;5.18;;;2.00;;
29120;SDS011;16191;49.548;8.658;2022-07-29T14:35:35;7.82;;;1.98;;
29120;SDS011;16191;49.548;8.658;2022-07-29T14:38:01;12.63;;;1.90;;
29120;SDS011;16191;49.548;8.658;2022-07-29T14:40:28;11.32;;;1.95;;
29120;SDS011;16191;49.548;8.658;2022-07-29T14:42:54;6.60;;;2.42;;
29120;SDS011;16191;49.548;8.658;2022-07-29T14:45:21;7.70;;;2.08;;
29120;SDS011;16191;49.548;8.658;2022-07-29T14:47:49;8.80;;;2.20;;
29120;SDS011;16191;49.548;8.658;2022-07-29T14:50:21;5.13;;;1.92;;
29120;SDS011;16191;49.548;8.658;2022-07-29T14:52:57;2.75;;;1.58;;
29120;SDS011;16191;49.548;8.658;2022-07-29T14:55:24;3.78;;;1.65;;
29120;SDS011;16191;49.548;8.658;2022-07-29T14:57:50;7.03;;;2.13;;
29120;SDS011;16191;49.548;8.658;2022-07-29T15:00:23;6.63;;;1.63;;
29120;SDS011;16191;49.548;8.658;2022-07-29T15:02:50;4.32;;;1.67;;
29120;SDS011;16191;49.548;8.658;2022-07-29T15:05:27;8.95;;;1.80;;
29120;SDS011;16191;49.548;8.658;2022-07-29T15:07:54;4.28;;;1.80;;
29120;SDS011;16191;49.548;8.658;2022-07-29T15:10:21;5.28;;;1.75;;
29120;SDS011;16191;49.548;8.658;2022-07-29T15:12:50;7.20;;;1.88;;
29120;SDS011;16191;49.548;8.658;2022-07-29T15:15:16;8.15;;;1.80;;
29120;SDS011;16191;49.548;8.658;2022-07-29T15:17:43;3.20;;;1.60;;
29120;SDS011;16191;49.548;8.658;2022-07-29T15:20:09;7.47;;;2.00;;
29120;SDS011;16191;49.548;8.658;2022-07-29T15:22:38;6.53;;;2.13;;
29120;SDS011;16191;49.548;8.658;2022-07-29T15:25:05;7.72;;;2.08;;
29120;SDS011;16191;49.548;8.658;2022-07-29T15:27:31;3.88;;;2.08;;
29120;SDS011;16191;49.548;8.658;2022-07-29T15:29:58;10.43;;;1.80;;
29120;SDS011;16191;49.548;8.658;2022-07-29T15:32:27;4.10;;;1.77;;
29120;SDS011;16191;49.548;8.658;2022-07-29T15:34:53;7.22;;;1.77;;
29120;SDS011;16191;49.548;8.658;2022-07-29T15:37:20;5.65;;;1.70;;
29120;SDS011;16191;49.548;8.658;2022-07-29T15:39:47;5.53;;;1.65;;
29120;SDS011;16191;49.548;8.658;2022-07-29T15:42:13;6.18;;;1.73;;
29120;SDS011;16191;49.548;8.658;2022-07-29T15:44:43;2.35;;;1.25;;
29120;SDS011;16191;49.548;8.658;2022-07-29T15:47:09;2.80;;;1.60;;
29120;SDS011;16191;49.548;8.658;2022-07-29T15:49:39;5.55;;;1.60;;
29120;SDS011;16191;49.548;8.658;2022-07-29T15:52:15;6.22;;;1.75;;